sensor_id;sensor_type;location;lat;lon;timestamp;P1;durP1;ratioP1;P2;durP2;ratioP2
57085;SDS011;42964;42.910;23.792;2023-05-10T00:00:04;19.80;;;12.95;;
57085;SDS011;42964;42.910;23.792;2023-05-10T00:05:03;26.52;;;14.10;;
57085;SDS011;42964;42.910;23.792;2023-05-10T00:10:03;22.50;;;13.70;;
57085;SDS011;42964;42.910;23.792;2023-05-10T00:15:02;22.90;;;14.60;;
57085;SDS011;42964;42.910;23.792;2023-05-10T00:20:02;20.50;;;14.05;;
57085;SDS011;42964;42.910;23.792;2023-05-10T00:25:03;21.85;;;13.13;;
57085;SDS011;42964;42.910;23.792;2023-05-10T00:30:02;19.35;;;13.23;;
57085;SDS011;42964;42.910;23.792;2023-05-10T00:35:02;20.90;;;13.90;;
57085;SDS011;42964;42.910;23.792;2023-05-10T00:40:01;22.85;;;13.77;;
57085;SDS011;42964;42.910;23.792;2023-05-10T00:49:59;23.63;;;15.73;;
57085;SDS011;42964;42.910;23.792;2023-05-10T00:54:59;23.23;;;14.85;;
57085;SDS011;42964;42.910;23.792;2023-05-10T00:59:59;23.70;;;15.50;;
57085;SDS011;42964;42.910;23.792;2023-05-10T01:04:58;22.58;;;14.98;;
57085;SDS011;42964;42.910;23.792;2023-05-10T01:09:57;22.67;;;15.25;;
57085;SDS011;42964;42.910;23.792;2023-05-10T01:14:56;26.58;;;15.02;;
57085;SDS011;42964;42.910;23.792;2023-05-10T01:19:56;24.35;;;14.95;;
57085;SDS011;42964;42.910;23.792;2023-05-10T01:41:05;23.10;;;13.95;;
57085;SDS011;42964;42.910;23.792;2023-05-10T01:46:10;24.35;;;14.65;;
57085;SDS011;42964;42.910;23.792;2023-05-10T01:51:15;21.10;;;13.77;;
57085;SDS011;42964;42.910;23.792;2023-05-10T01:56:19;22.20;;;13.82;;
57085;SDS011;42964;42.910;23.792;2023-05-10T02:01:22;24.73;;;15.30;;
57085;SDS011;42964;42.910;23.792;2023-05-10T02:06:24;21.77;;;14.85;;
57085;SDS011;42964;42.910;23.792;2023-05-10T02:11:25;19.77;;;12.73;;
57085;SDS011;42964;42.910;23.792;2023-05-10T02:16:26;20.95;;;13.60;;
57085;SDS011;42964;42.910;23.792;2023-05-10T02:21:29;22.95;;;14.57;;
57085;SDS011;42964;42.910;23.792;2023-05-10T02:26:29;22.00;;;14.57;;
57085;SDS011;42964;42.910;23.792;2023-05-10T02:31:31;22.92;;;13.70;;
57085;SDS011;42964;42.910;23.792;2023-05-10T02:36:31;20.80;;;14.02;;
57085;SDS011;42964;42.910;23.792;2023-05-10T02:41:31;21.95;;;14.35;;
57085;SDS011;42964;42.910;23.792;2023-05-10T02:46:31;23.85;;;15.27;;
57085;SDS011;42964;42.910;23.792;2023-05-10T02:51:31;21.77;;;14.15;;
57085;SDS011;42964;42.910;23.792;2023-05-10T02:56:34;27.42;;;17.08;;
57085;SDS011;42964;42.910;23.792;2023-05-10T03:01:35;21.95;;;15.40;;
57085;SDS011;42964;42.910;23.792;2023-05-10T03:06:34;10.25;;;7.88;;
57085;SDS011;42964;42.910;23.792;2023-05-10T03:21:51;10.10;;;4.97;;
57085;SDS011;42964;42.910;23.792;2023-05-10T03:26:52;6.75;;;4.00;;
57085;SDS011;42964;42.910;23.792;2023-05-10T03:31:55;6.60;;;4.38;;
57085;SDS011;42964;42.910;23.792;2023-05-10T03:36:54;6.88;;;4.93;;
57085;SDS011;42964;42.910;23.792;2023-05-10T03:41:53;7.47;;;4.63;;
57085;SDS011;42964;42.910;23.792;2023-05-10T03:46:52;7.30;;;4.72;;
57085;SDS011;42964;42.910;23.792;2023-05-10T03:56:50;7.45;;;4.53;;
57085;SDS011;42964;42.910;23.792;2023-05-10T04:01:49;8.30;;;4.28;;
57085;SDS011;42964;42.910;23.792;2023-05-10T04:06:47;7.47;;;4.47;;
57085;SDS011;42964;42.910;23.792;2023-05-10T04:11:46;6.80;;;4.50;;
57085;SDS011;42964;42.910;23.792;2023-05-10T04:16:45;6.28;;;4.38;;
57085;SDS011;42964;42.910;23.792;2023-05-10T04:21:44;7.07;;;4.00;;
57085;SDS011;42964;42.910;23.792;2023-05-10T04:26:43;7.28;;;3.72;;
57085;SDS011;42964;42.910;23.792;2023-05-10T04:31:42;7.03;;;4.15;;
57085;SDS011;42964;42.910;23.792;2023-05-10T04:36:41;7.95;;;4.25;;
57085;SDS011;42964;42.910;23.792;2023-05-10T04:41:40;5.22;;;3.50;;
57085;SDS011;42964;42.910;23.792;2023-05-10T04:46:39;8.23;;;4.13;;
57085;SDS011;42964;42.910;23.792;2023-05-10T04:51:38;5.38;;;3.75;;
57085;SDS011;42964;42.910;23.792;2023-05-10T04:56:37;5.18;;;3.47;;
57085;SDS011;42964;42.910;23.792;2023-05-10T05:01:36;6.40;;;3.75;;
57085;SDS011;42964;42.910;23.792;2023-05-10T05:06:35;5.55;;;3.70;;
57085;SDS011;42964;42.910;23.792;2023-05-10T05:11:34;6.10;;;3.70;;
57085;SDS011;42964;42.910;23.792;2023-05-10T05:16:33;5.65;;;3.97;;
57085;SDS011;42964;42.910;23.792;2023-05-10T05:21:32;5.50;;;3.85;;
57085;SDS011;42964;42.910;23.792;2023-05-10T05:31:30;5.13;;;3.80;;
57085;SDS011;42964;42.910;23.792;2023-05-10T05:46:28;5.55;;;3.40;;
57085;SDS011;42964;42.910;23.792;2023-05-10T05:51:26;5.85;;;4.18;;
57085;SDS011;42964;42.910;23.792;2023-05-10T05:56:26;7.35;;;3.30;;
57085;SDS011;42964;42.910;23.792;2023-05-10T06:01:25;4.22;;;3.22;;
57085;SDS011;42964;42.910;23.792;2023-05-10T06:06:24;6.68;;;3.30;;
57085;SDS011;42964;42.910;23.792;2023-05-10T06:11:23;8.35;;;4.53;;
57085;SDS011;42964;42.910;23.792;2023-05-10T06:21:21;4.13;;;3.03;;
57085;SDS011;42964;42.910;23.792;2023-05-10T06:26:20;7.57;;;4.20;;
57085;SDS011;42964;42.910;23.792;2023-05-10T06:31:19;6.30;;;3.80;;
57085;SDS011;42964;42.910;23.792;2023-05-10T06:36:19;8.73;;;4.72;;
57085;SDS011;42964;42.910;23.792;2023-05-10T06:41:18;4.95;;;3.65;;
57085;SDS011;42964;42.910;23.792;2023-05-10T06:51:16;6.22;;;3.35;;
57085;SDS011;42964;42.910;23.792;2023-05-10T06:56:16;5.40;;;3.25;;
57085;SDS011;42964;42.910;23.792;2023-05-10T07:01:15;6.18;;;3.72;;
57085;SDS011;42964;42.910;23.792;2023-05-10T07:06:14;5.15;;;3.33;;
57085;SDS011;42964;42.910;23.792;2023-05-10T07:11:13;3.58;;;2.80;;
57085;SDS011;42964;42.910;23.792;2023-05-10T07:16:12;7.00;;;3.00;;
57085;SDS011;42964;42.910;23.792;2023-05-10T07:21:11;6.50;;;2.90;;
57085;SDS011;42964;42.910;23.792;2023-05-10T07:26:10;5.10;;;3.03;;
57085;SDS011;42964;42.910;23.792;2023-05-10T07:36:07;4.70;;;2.87;;
57085;SDS011;42964;42.910;23.792;2023-05-10T07:41:06;3.58;;;2.60;;
57085;SDS011;42964;42.910;23.792;2023-05-10T07:46:05;6.05;;;2.75;;
57085;SDS011;42964;42.910;23.792;2023-05-10T07:51:04;6.03;;;2.65;;
57085;SDS011;42964;42.910;23.792;2023-05-10T07:56:26;5.70;;;3.38;;
57085;SDS011;42964;42.910;23.792;2023-05-10T08:01:31;5.80;;;3.08;;
57085;SDS011;42964;42.910;23.792;2023-05-10T08:06:31;27.80;;;23.25;;
57085;SDS011;42964;42.910;23.792;2023-05-10T08:11:30;4.97;;;3.38;;
57085;SDS011;42964;42.910;23.792;2023-05-10T08:16:29;6.90;;;2.88;;
57085;SDS011;42964;42.910;23.792;2023-05-10T08:21:27;5.22;;;3.40;;
57085;SDS011;42964;42.910;23.792;2023-05-10T08:26:27;6.05;;;3.88;;
57085;SDS011;42964;42.910;23.792;2023-05-10T08:31:26;7.72;;;4.38;;
57085;SDS011;42964;42.910;23.792;2023-05-10T08:36:25;6.68;;;3.85;;
57085;SDS011;42964;42.910;23.792;2023-05-10T08:41:24;5.00;;;2.95;;
57085;SDS011;42964;42.910;23.792;2023-05-10T08:46:25;6.40;;;3.40;;
57085;SDS011;42964;42.910;23.792;2023-05-10T08:51:25;7.55;;;3.47;;
57085;SDS011;42964;42.910;23.792;2023-05-10T08:56:31;6.05;;;2.92;;
57085;SDS011;42964;42.910;23.792;2023-05-10T09:01:30;13.02;;;3.33;;
57085;SDS011;42964;42.910;23.792;2023-05-10T09:06:30;7.53;;;3.35;;
57085;SDS011;42964;42.910;23.792;2023-05-10T09:11:30;10.70;;;3.50;;
57085;SDS011;42964;42.910;23.792;2023-05-10T09:16:30;3.42;;;2.35;;
57085;SDS011;42964;42.910;23.792;2023-05-10T09:21:29;12.68;;;3.40;;
57085;SDS011;42964;42.910;23.792;2023-05-10T09:26:29;5.75;;;3.17;;
57085;SDS011;42964;42.910;23.792;2023-05-10T09:31:42;4.60;;;3.08;;
57085;SDS011;42964;42.910;23.792;2023-05-10T09:36:50;5.35;;;3.33;;
57085;SDS011;42964;42.910;23.792;2023-05-10T09:41:52;7.45;;;3.50;;
57085;SDS011;42964;42.910;23.792;2023-05-10T09:46:52;6.20;;;3.22;;
57085;SDS011;42964;42.910;23.792;2023-05-10T09:52:03;7.15;;;3.45;;
57085;SDS011;42964;42.910;23.792;2023-05-10T09:57:04;6.22;;;2.97;;
57085;SDS011;42964;42.910;23.792;2023-05-10T10:02:03;8.25;;;3.83;;
57085;SDS011;42964;42.910;23.792;2023-05-10T10:07:03;4.70;;;3.00;;
57085;SDS011;42964;42.910;23.792;2023-05-10T10:12:03;4.40;;;3.03;;
57085;SDS011;42964;42.910;23.792;2023-05-10T10:17:03;4.93;;;3.25;;
57085;SDS011;42964;42.910;23.792;2023-05-10T10:22:02;13.30;;;3.75;;
57085;SDS011;42964;42.910;23.792;2023-05-10T10:27:04;6.50;;;3.53;;
57085;SDS011;42964;42.910;23.792;2023-05-10T10:37:47;8.02;;;4.22;;
57085;SDS011;42964;42.910;23.792;2023-05-10T10:42:48;5.47;;;3.35;;
57085;SDS011;42964;42.910;23.792;2023-05-10T10:47:48;8.73;;;3.75;;
57085;SDS011;42964;42.910;23.792;2023-05-10T10:52:51;5.28;;;3.03;;
57085;SDS011;42964;42.910;23.792;2023-05-10T10:57:52;4.68;;;3.17;;
57085;SDS011;42964;42.910;23.792;2023-05-10T11:02:59;6.15;;;2.92;;
57085;SDS011;42964;42.910;23.792;2023-05-10T11:08:25;4.97;;;3.08;;
57085;SDS011;42964;42.910;23.792;2023-05-10T11:18:45;6.57;;;3.80;;
57085;SDS011;42964;42.910;23.792;2023-05-10T11:29:13;4.97;;;3.03;;
57085;SDS011;42964;42.910;23.792;2023-05-10T11:39:27;5.85;;;3.72;;
57085;SDS011;42964;42.910;23.792;2023-05-10T11:44:30;6.03;;;2.83;;
57085;SDS011;42964;42.910;23.792;2023-05-10T11:49:30;7.25;;;3.40;;
57085;SDS011;42964;42.910;23.792;2023-05-10T11:54:29;7.90;;;3.47;;
57085;SDS011;42964;42.910;23.792;2023-05-10T11:59:28;6.40;;;3.38;;
57085;SDS011;42964;42.910;23.792;2023-05-10T12:04:27;4.78;;;2.97;;
57085;SDS011;42964;42.910;23.792;2023-05-10T12:09:27;6.50;;;3.22;;
57085;SDS011;42964;42.910;23.792;2023-05-10T12:14:26;4.93;;;3.20;;
57085;SDS011;42964;42.910;23.792;2023-05-10T12:19:26;5.55;;;3.63;;
57085;SDS011;42964;42.910;23.792;2023-05-10T12:24:25;7.60;;;4.10;;
57085;SDS011;42964;42.910;23.792;2023-05-10T12:29:24;5.60;;;3.90;;
57085;SDS011;42964;42.910;23.792;2023-05-10T12:34:26;18.92;;;14.93;;
57085;SDS011;42964;42.910;23.792;2023-05-10T12:39:39;9.68;;;6.10;;
57085;SDS011;42964;42.910;23.792;2023-05-10T12:49:37;6.93;;;4.17;;
57085;SDS011;42964;42.910;23.792;2023-05-10T12:54:36;5.63;;;3.70;;
57085;SDS011;42964;42.910;23.792;2023-05-10T12:59:35;6.93;;;3.90;;
57085;SDS011;42964;42.910;23.792;2023-05-10T13:04:34;6.97;;;3.30;;
57085;SDS011;42964;42.910;23.792;2023-05-10T13:09:36;5.57;;;3.30;;
57085;SDS011;42964;42.910;23.792;2023-05-10T13:14:35;12.23;;;3.90;;
57085;SDS011;42964;42.910;23.792;2023-05-10T13:19:34;8.63;;;4.13;;
57085;SDS011;42964;42.910;23.792;2023-05-10T13:24:33;7.80;;;4.35;;
57085;SDS011;42964;42.910;23.792;2023-05-10T13:29:32;5.55;;;3.78;;
57085;SDS011;42964;42.910;23.792;2023-05-10T13:34:31;7.68;;;3.60;;
57085;SDS011;42964;42.910;23.792;2023-05-10T13:39:30;7.78;;;4.65;;
57085;SDS011;42964;42.910;23.792;2023-05-10T13:44:32;8.52;;;3.75;;
57085;SDS011;42964;42.910;23.792;2023-05-10T13:49:32;6.47;;;3.70;;
57085;SDS011;42964;42.910;23.792;2023-05-10T13:54:35;6.32;;;3.50;;
57085;SDS011;42964;42.910;23.792;2023-05-10T13:59:35;8.60;;;3.63;;
57085;SDS011;42964;42.910;23.792;2023-05-10T14:04:34;7.43;;;4.30;;
57085;SDS011;42964;42.910;23.792;2023-05-10T14:09:34;10.13;;;4.63;;
57085;SDS011;42964;42.910;23.792;2023-05-10T14:14:33;7.93;;;4.50;;
57085;SDS011;42964;42.910;23.792;2023-05-10T14:19:31;5.68;;;4.25;;
57085;SDS011;42964;42.910;23.792;2023-05-10T14:24:32;11.15;;;4.35;;
57085;SDS011;42964;42.910;23.792;2023-05-10T14:29:31;11.90;;;4.03;;
57085;SDS011;42964;42.910;23.792;2023-05-10T14:34:30;11.15;;;5.35;;
57085;SDS011;42964;42.910;23.792;2023-05-10T14:39:29;8.70;;;4.45;;
57085;SDS011;42964;42.910;23.792;2023-05-10T14:44:28;13.23;;;4.07;;
57085;SDS011;42964;42.910;23.792;2023-05-10T14:49:27;9.40;;;4.82;;
57085;SDS011;42964;42.910;23.792;2023-05-10T14:54:26;7.63;;;4.15;;
57085;SDS011;42964;42.910;23.792;2023-05-10T14:59:26;7.22;;;4.32;;
57085;SDS011;42964;42.910;23.792;2023-05-10T15:04:24;10.85;;;4.20;;
57085;SDS011;42964;42.910;23.792;2023-05-10T15:09:23;9.13;;;4.78;;
57085;SDS011;42964;42.910;23.792;2023-05-10T15:14:23;7.63;;;4.75;;
57085;SDS011;42964;42.910;23.792;2023-05-10T15:19:22;6.63;;;3.80;;
57085;SDS011;42964;42.910;23.792;2023-05-10T15:24:21;7.90;;;3.95;;
57085;SDS011;42964;42.910;23.792;2023-05-10T15:29:20;6.28;;;4.65;;
57085;SDS011;42964;42.910;23.792;2023-05-10T15:34:19;8.40;;;5.00;;
57085;SDS011;42964;42.910;23.792;2023-05-10T15:39:18;8.48;;;5.32;;
57085;SDS011;42964;42.910;23.792;2023-05-10T15:44:17;8.45;;;4.80;;
57085;SDS011;42964;42.910;23.792;2023-05-10T15:49:17;10.50;;;5.65;;
57085;SDS011;42964;42.910;23.792;2023-05-10T15:54:15;10.98;;;5.65;;
57085;SDS011;42964;42.910;23.792;2023-05-10T15:59:14;22.75;;;6.70;;
57085;SDS011;42964;42.910;23.792;2023-05-10T16:04:13;10.80;;;6.10;;
57085;SDS011;42964;42.910;23.792;2023-05-10T16:09:12;11.65;;;5.63;;
57085;SDS011;42964;42.910;23.792;2023-05-10T16:14:11;10.85;;;5.43;;
57085;SDS011;42964;42.910;23.792;2023-05-10T16:19:10;9.32;;;5.63;;
57085;SDS011;42964;42.910;23.792;2023-05-10T16:24:10;10.05;;;6.53;;
57085;SDS011;42964;42.910;23.792;2023-05-10T16:29:09;12.75;;;7.60;;
57085;SDS011;42964;42.910;23.792;2023-05-10T16:34:08;10.68;;;6.25;;
57085;SDS011;42964;42.910;23.792;2023-05-10T16:39:07;11.02;;;6.90;;
57085;SDS011;42964;42.910;23.792;2023-05-10T16:44:07;10.68;;;6.13;;
57085;SDS011;42964;42.910;23.792;2023-05-10T16:49:06;13.05;;;6.80;;
57085;SDS011;42964;42.910;23.792;2023-05-10T16:54:06;12.20;;;5.68;;
57085;SDS011;42964;42.910;23.792;2023-05-10T16:59:05;10.15;;;6.35;;
57085;SDS011;42964;42.910;23.792;2023-05-10T17:04:04;8.18;;;4.95;;
57085;SDS011;42964;42.910;23.792;2023-05-10T17:14:03;12.05;;;5.75;;
57085;SDS011;42964;42.910;23.792;2023-05-10T17:24:00;11.55;;;6.00;;
57085;SDS011;42964;42.910;23.792;2023-05-10T17:33:58;7.43;;;4.78;;
57085;SDS011;42964;42.910;23.792;2023-05-10T17:38:57;10.75;;;5.63;;
57085;SDS011;42964;42.910;23.792;2023-05-10T17:48:55;7.90;;;5.00;;
57085;SDS011;42964;42.910;23.792;2023-05-10T17:58:53;8.18;;;4.78;;
57085;SDS011;42964;42.910;23.792;2023-05-10T18:03:52;9.45;;;4.35;;
57085;SDS011;42964;42.910;23.792;2023-05-10T18:13:50;7.00;;;4.75;;
57085;SDS011;42964;42.910;23.792;2023-05-10T18:23:47;7.47;;;4.40;;
57085;SDS011;42964;42.910;23.792;2023-05-10T18:33:45;7.38;;;4.53;;
57085;SDS011;42964;42.910;23.792;2023-05-10T18:38:45;5.60;;;4.50;;
57085;SDS011;42964;42.910;23.792;2023-05-10T18:48:43;9.90;;;5.00;;
57085;SDS011;42964;42.910;23.792;2023-05-10T18:53:46;8.18;;;4.78;;
57085;SDS011;42964;42.910;23.792;2023-05-10T18:58:45;7.25;;;4.90;;
57085;SDS011;42964;42.910;23.792;2023-05-10T19:13:43;6.82;;;4.88;;
57085;SDS011;42964;42.910;23.792;2023-05-10T19:18:44;10.38;;;5.07;;
57085;SDS011;42964;42.910;23.792;2023-05-10T19:23:44;20.00;;;5.20;;
57085;SDS011;42964;42.910;23.792;2023-05-10T19:33:41;7.03;;;4.80;;
57085;SDS011;42964;42.910;23.792;2023-05-10T19:43:39;9.65;;;4.63;;
57085;SDS011;42964;42.910;23.792;2023-05-10T19:48:39;7.30;;;4.38;;
57085;SDS011;42964;42.910;23.792;2023-05-10T19:58:41;5.40;;;3.97;;
57085;SDS011;42964;42.910;23.792;2023-05-10T20:08:39;9.15;;;4.68;;
57085;SDS011;42964;42.910;23.792;2023-05-10T20:13:38;7.43;;;5.28;;
57085;SDS011;42964;42.910;23.792;2023-05-10T20:18:37;7.97;;;4.20;;
57085;SDS011;42964;42.910;23.792;2023-05-10T20:23:36;5.55;;;4.25;;
57085;SDS011;42964;42.910;23.792;2023-05-10T20:28:35;6.13;;;4.22;;
57085;SDS011;42964;42.910;23.792;2023-05-10T20:38:33;4.90;;;4.00;;
57085;SDS011;42964;42.910;23.792;2023-05-10T20:43:31;5.13;;;3.88;;
57085;SDS011;42964;42.910;23.792;2023-05-10T20:48:31;6.13;;;4.35;;
57085;SDS011;42964;42.910;23.792;2023-05-10T20:53:30;10.70;;;4.30;;
57085;SDS011;42964;42.910;23.792;2023-05-10T21:03:28;6.60;;;4.20;;
57085;SDS011;42964;42.910;23.792;2023-05-10T21:08:27;6.75;;;3.92;;
57085;SDS011;42964;42.910;23.792;2023-05-10T21:18:25;5.07;;;3.67;;
57085;SDS011;42964;42.910;23.792;2023-05-10T21:28:22;5.28;;;3.88;;
57085;SDS011;42964;42.910;23.792;2023-05-10T21:38:21;5.63;;;4.30;;
57085;SDS011;42964;42.910;23.792;2023-05-10T21:43:20;5.07;;;4.35;;
57085;SDS011;42964;42.910;23.792;2023-05-10T21:53:18;6.72;;;4.45;;
57085;SDS011;42964;42.910;23.792;2023-05-10T21:58:17;5.88;;;4.22;;
57085;SDS011;42964;42.910;23.792;2023-05-10T22:08:15;6.45;;;4.15;;
57085;SDS011;42964;42.910;23.792;2023-05-10T22:18:12;6.05;;;4.63;;
57085;SDS011;42964;42.910;23.792;2023-05-10T22:23:11;6.90;;;4.78;;
57085;SDS011;42964;42.910;23.792;2023-05-10T22:28:11;6.47;;;5.25;;
57085;SDS011;42964;42.910;23.792;2023-05-10T22:38:09;7.43;;;5.10;;
57085;SDS011;42964;42.910;23.792;2023-05-10T22:43:07;6.78;;;5.15;;
57085;SDS011;42964;42.910;23.792;2023-05-10T22:53:06;8.50;;;6.03;;
57085;SDS011;42964;42.910;23.792;2023-05-10T22:58:05;8.50;;;6.22;;
57085;SDS011;42964;42.910;23.792;2023-05-10T23:03:04;8.43;;;7.13;;
57085;SDS011;42964;42.910;23.792;2023-05-10T23:08:04;9.73;;;7.88;;
57085;SDS011;42964;42.910;23.792;2023-05-10T23:13:04;9.68;;;6.80;;
57085;SDS011;42964;42.910;23.792;2023-05-10T23:18:03;10.25;;;7.03;;
57085;SDS011;42964;42.910;23.792;2023-05-10T23:23:03;9.93;;;7.32;;
57085;SDS011;42964;42.910;23.792;2023-05-10T23:33:01;8.63;;;6.57;;
57085;SDS011;42964;42.910;23.792;2023-05-10T23:38:00;8.88;;;6.78;;
57085;SDS011;42964;42.910;23.792;2023-05-10T23:47:58;8.93;;;7.03;;
57085;SDS011;42964;42.910;23.792;2023-05-10T23:52:57;9.93;;;6.72;;
57085;SDS011;42964;42.910;23.792;2023-05-10T23:57:56;8.48;;;6.35;;
